Time;durP1;ratioP1;P1;durP2;ratioP2;P2;SDS_P1;SDS_P2;PMS_P1;PMS_P2;Temp;Humidity;BMP_temperature;BMP_pressure;BME280_temperature;BME280_humidity;BME280_pressure;Samples;Min_cycle;Max_cycle;Signal;HPM_P1;HPM_P2
2022/10/18 00:01:46;;;;;;;37.30;23.63;;;;;;;;;;5009034;28;20278;-62
2022/10/18 00:04:11;;;;;;;28.65;20.92;;;;;;;;;;5007538;28;20219;-62
2022/10/18 00:06:36;;;;;;;36.80;23.30;;;;;;;;;;5008726;28;20212;-62
2022/10/18 00:09:02;;;;;;;33.00;22.10;;;;;;;;;;5008571;28;20220;-62
2022/10/18 00:11:27;;;;;;;35.90;22.83;;;;;;;;;;5007994;28;20209;-62
2022/10/18 00:13:54;;;;;;;38.92;22.08;;;;;;;;;;5008785;28;20216;-62
2022/10/18 00:16:19;;;;;;;61.83;27.52;;;;;;;;;;5008828;28;20313;-62
2022/10/18 00:18:46;;;;;;;46.78;25.00;;;;;;;;;;5008563;28;20730;-62
2022/10/18 00:21:13;;;;;;;40.65;24.40;;;;;;;;;;5008709;28;20220;-62
2022/10/18 00:23:38;;;;;;;37.03;23.58;;;;;;;;;;5008354;28;20577;-62
2022/10/18 00:26:05;;;;;;;128.80;32.15;;;;;;;;;;5007616;28;20262;-62
2022/10/18 00:28:31;;;;;;;63.08;27.88;;;;;;;;;;5008625;28;20701;-62
2022/10/18 00:30:56;;;;;;;41.28;25.63;;;;;;;;;;5008305;28;20246;-62
2022/10/18 00:33:21;;;;;;;34.55;23.15;;;;;;;;;;5006362;28;20220;-62
2022/10/18 00:35:47;;;;;;;31.27;22.50;;;;;;;;;;5008367;28;20220;-62
2022/10/18 00:38:12;;;;;;;41.65;26.85;;;;;;;;;;5007854;28;20216;-62
2022/10/18 00:40:37;;;;;;;35.58;22.58;;;;;;;;;;5008181;28;20201;-62
2022/10/18 00:43:02;;;;;;;29.00;20.52;;;;;;;;;;4996061;28;20274;-62
2022/10/18 00:45:28;;;;;;;26.17;20.00;;;;;;;;;;4995416;28;20566;-62
2022/10/18 00:47:55;;;;;;;31.42;20.30;;;;;;;;;;4998678;28;20224;-62
2022/10/18 00:50:20;;;;;;;24.95;18.67;;;;;;;;;;4998722;28;20309;-62
2022/10/18 00:52:47;;;;;;;37.33;24.30;;;;;;;;;;4995843;28;20679;-62
2022/10/18 00:55:12;;;;;;;40.95;24.70;;;;;;;;;;4996724;28;20220;-61
2022/10/18 00:57:38;;;;;;;337.52;38.33;;;;;;;;;;4998292;28;20261;-62
2022/10/18 01:00:08;;;;;;;25.42;18.83;;;;;;;;;;4994334;28;20216;-62
2022/10/18 01:02:33;;;;;;;29.10;22.15;;;;;;;;;;4989711;28;20236;-62
2022/10/18 01:04:59;;;;;;;44.15;25.10;;;;;;;;;;4991281;28;20263;-62
2022/10/18 01:07:28;;;;;;;55.40;26.05;;;;;;;;;;4992460;28;20201;-62
2022/10/18 01:09:58;;;;;;;31.27;22.65;;;;;;;;;;5003466;28;20224;-62
2022/10/18 01:12:31;;;;;;;33.92;23.40;;;;;;;;;;5001976;28;21044;-62
2022/10/18 01:15:10;;;;;;;30.17;21.35;;;;;;;;;;5001243;28;20696;-62
2022/10/18 01:17:40;;;;;;;40.20;23.17;;;;;;;;;;5003403;28;20295;-62
2022/10/18 01:20:12;;;;;;;35.33;23.88;;;;;;;;;;5003442;28;20209;-62
2022/10/18 01:22:42;;;;;;;29.77;21.27;;;;;;;;;;4999364;28;20660;-62
2022/10/18 01:25:13;;;;;;;28.77;19.52;;;;;;;;;;4986584;28;20213;-62
2022/10/18 01:27:47;;;;;;;31.65;21.40;;;;;;;;;;4988394;28;20220;-62
2022/10/18 01:30:15;;;;;;;27.50;20.13;;;;;;;;;;4990771;28;20590;-62
2022/10/18 01:32:42;;;;;;;38.88;25.02;;;;;;;;;;4996856;28;20994;-62
2022/10/18 01:35:10;;;;;;;22.73;17.75;;;;;;;;;;4994934;28;20312;-62
2022/10/18 01:37:35;;;;;;;30.38;22.98;;;;;;;;;;4997153;28;20204;-62
2022/10/18 01:40:02;;;;;;;32.85;21.33;;;;;;;;;;4996261;28;20227;-63
2022/10/18 01:42:27;;;;;;;29.50;21.50;;;;;;;;;;4997264;28;20403;-62
2022/10/18 01:44:53;;;;;;;30.02;21.50;;;;;;;;;;5006815;28;20581;-62
2022/10/18 01:47:18;;;;;;;31.30;21.80;;;;;;;;;;5005848;28;20746;-62
2022/10/18 01:49:43;;;;;;;31.38;21.85;;;;;;;;;;5005522;28;20488;-62
2022/10/18 01:52:11;;;;;;;31.55;22.10;;;;;;;;;;5007323;28;20628;-62
2022/10/18 01:54:38;;;;;;;30.73;21.42;;;;;;;;;;5007231;28;20235;-62
2022/10/18 01:57:04;;;;;;;35.50;22.80;;;;;;;;;;5006757;28;20236;-62
2022/10/18 01:59:36;;;;;;;22.63;17.77;;;;;;;;;;5007786;28;20236;-62
2022/10/18 02:02:17;;;;;;;23.92;19.00;;;;;;;;;;5007070;28;20229;-62
2022/10/18 02:04:58;;;;;;;24.88;17.58;;;;;;;;;;5006231;28;20227;-62
2022/10/18 02:07:30;;;;;;;28.77;20.85;;;;;;;;;;5005254;28;20299;-62
2022/10/18 02:10:03;;;;;;;32.13;22.85;;;;;;;;;;5006015;28;20299;-62
2022/10/18 02:12:28;;;;;;;41.00;26.95;;;;;;;;;;5006520;28;20291;-62
2022/10/18 02:14:53;;;;;;;28.50;21.52;;;;;;;;;;5005626;28;20308;-62
2022/10/18 02:17:19;;;;;;;46.15;27.75;;;;;;;;;;5004343;28;20209;-62
2022/10/18 02:19:47;;;;;;;40.70;27.35;;;;;;;;;;5006810;28;20204;-62
2022/10/18 02:22:12;;;;;;;34.70;24.42;;;;;;;;;;5004764;28;20404;-62
2022/10/18 02:24:38;;;;;;;39.88;25.98;;;;;;;;;;5004166;28;20223;-62
2022/10/18 02:27:03;;;;;;;43.95;25.92;;;;;;;;;;5004014;28;20377;-62
2022/10/18 02:29:28;;;;;;;51.35;28.92;;;;;;;;;;5006688;28;20574;-61
2022/10/18 02:31:58;;;;;;;40.13;24.88;;;;;;;;;;5005008;28;20338;-62
2022/10/18 02:34:26;;;;;;;46.42;27.50;;;;;;;;;;5005327;28;20220;-62
2022/10/18 02:36:51;;;;;;;40.65;25.88;;;;;;;;;;5006214;28;20244;-62
2022/10/18 02:39:18;;;;;;;39.17;24.83;;;;;;;;;;5004554;28;20213;-62
2022/10/18 02:41:44;;;;;;;69.40;32.65;;;;;;;;;;5005875;28;20798;-62
2022/10/18 02:44:09;;;;;;;44.15;26.63;;;;;;;;;;5005355;28;20204;-62
2022/10/18 02:46:34;;;;;;;42.63;25.02;;;;;;;;;;5006467;28;20290;-62
2022/10/18 02:49:00;;;;;;;41.08;24.92;;;;;;;;;;5007348;28;20215;-62
2022/10/18 02:51:25;;;;;;;35.85;24.58;;;;;;;;;;5007367;28;20220;-62
2022/10/18 02:53:50;;;;;;;42.33;25.45;;;;;;;;;;5006092;28;20684;-62
2022/10/18 02:56:15;;;;;;;36.60;23.73;;;;;;;;;;5006363;28;20220;-62
2022/10/18 02:58:41;;;;;;;52.03;28.67;;;;;;;;;;5006726;28;20208;-62
2022/10/18 03:01:06;;;;;;;42.42;26.25;;;;;;;;;;5005471;28;20739;-62
2022/10/18 03:03:31;;;;;;;31.58;22.60;;;;;;;;;;5006331;28;20286;-62
2022/10/18 03:05:56;;;;;;;27.27;19.13;;;;;;;;;;5006607;28;20274;-62
2022/10/18 03:08:22;;;;;;;37.58;24.10;;;;;;;;;;5004972;28;20392;-62
2022/10/18 03:10:47;;;;;;;33.30;22.55;;;;;;;;;;5006554;28;20224;-62
2022/10/18 03:13:12;;;;;;;31.65;20.98;;;;;;;;;;5005536;28;20223;-62
2022/10/18 03:15:38;;;;;;;31.98;21.88;;;;;;;;;;5006542;28;20663;-62
2022/10/18 03:18:03;;;;;;;34.53;22.85;;;;;;;;;;5005971;28;20232;-61
2022/10/18 03:20:28;;;;;;;35.75;23.70;;;;;;;;;;5005629;28;20219;-62
2022/10/18 03:22:53;;;;;;;29.75;21.25;;;;;;;;;;5006242;28;20707;-62
2022/10/18 03:25:19;;;;;;;30.90;20.60;;;;;;;;;;5007831;28;20213;-61
2022/10/18 03:27:44;;;;;;;30.38;21.27;;;;;;;;;;5011014;28;20240;-62
2022/10/18 03:30:10;;;;;;;28.67;18.92;;;;;;;;;;5011236;28;20216;-62
2022/10/18 03:32:36;;;;;;;33.97;20.98;;;;;;;;;;5011767;28;20223;-62
2022/10/18 03:35:02;;;;;;;37.47;24.05;;;;;;;;;;5010674;28;20229;-62
2022/10/18 03:37:27;;;;;;;34.35;22.02;;;;;;;;;;5011940;28;20265;-62
2022/10/18 03:39:52;;;;;;;34.80;22.23;;;;;;;;;;5015180;28;20288;-62
2022/10/18 03:42:17;;;;;;;29.80;19.42;;;;;;;;;;5010252;28;20215;-61
2022/10/18 03:44:43;;;;;;;37.67;23.25;;;;;;;;;;5004046;28;20561;-62
2022/10/18 03:47:08;;;;;;;30.77;20.40;;;;;;;;;;4991738;28;20407;-62
2022/10/18 03:49:33;;;;;;;32.65;21.38;;;;;;;;;;4991973;28;20312;-62
2022/10/18 03:51:58;;;;;;;37.20;22.98;;;;;;;;;;4992996;28;20212;-62
2022/10/18 03:54:24;;;;;;;37.10;22.17;;;;;;;;;;4998706;28;20236;-62
2022/10/18 03:56:49;;;;;;;33.40;21.85;;;;;;;;;;4998694;28;20212;-61
2022/10/18 03:59:15;;;;;;;29.73;19.00;;;;;;;;;;4998771;28;20219;-61
2022/10/18 04:01:41;;;;;;;26.88;18.80;;;;;;;;;;4998499;28;20216;-62
2022/10/18 04:04:06;;;;;;;30.17;20.92;;;;;;;;;;4998373;28;20319;-62
2022/10/18 04:06:31;;;;;;;25.23;18.35;;;;;;;;;;4998834;28;20274;-62
2022/10/18 04:08:56;;;;;;;28.58;19.60;;;;;;;;;;4994778;28;20469;-61
2022/10/18 04:11:22;;;;;;;31.63;20.80;;;;;;;;;;4990269;28;20226;-62
2022/10/18 04:13:47;;;;;;;29.02;19.52;;;;;;;;;;4991199;28;20228;-61
2022/10/18 04:16:12;;;;;;;32.10;19.67;;;;;;;;;;4995744;28;20613;-62
2022/10/18 04:18:38;;;;;;;30.63;20.33;;;;;;;;;;4997872;28;20220;-62
2022/10/18 04:21:03;;;;;;;40.05;21.67;;;;;;;;;;4997911;28;20789;-62
2022/10/18 04:23:28;;;;;;;31.20;19.30;;;;;;;;;;4998184;28;20267;-62
2022/10/18 04:25:53;;;;;;;31.20;20.00;;;;;;;;;;4998875;28;20306;-62
2022/10/18 04:28:19;;;;;;;36.95;21.30;;;;;;;;;;4998468;28;20729;-61
2022/10/18 04:30:48;;;;;;;30.13;19.95;;;;;;;;;;4995757;28;20584;-62
2022/10/18 04:33:13;;;;;;;27.77;19.25;;;;;;;;;;4991125;28;21020;-62
2022/10/18 04:35:38;;;;;;;29.58;18.13;;;;;;;;;;4991553;28;20525;-62
2022/10/18 04:38:04;;;;;;;28.17;18.77;;;;;;;;;;4993246;28;20228;-62
2022/10/18 04:40:29;;;;;;;26.63;19.13;;;;;;;;;;4998129;28;20220;-62
2022/10/18 04:42:54;;;;;;;30.15;19.67;;;;;;;;;;4997395;28;20695;-61
2022/10/18 04:45:19;;;;;;;29.67;19.50;;;;;;;;;;4996712;28;20224;-62
2022/10/18 04:47:45;;;;;;;32.33;20.10;;;;;;;;;;4998076;28;20212;-63
2022/10/18 04:50:10;;;;;;;28.17;17.95;;;;;;;;;;4997030;28;20698;-62
2022/10/18 04:52:35;;;;;;;27.77;18.08;;;;;;;;;;4997355;28;20216;-62
2022/10/18 04:55:01;;;;;;;28.80;18.20;;;;;;;;;;4990730;28;20716;-62
2022/10/18 04:57:26;;;;;;;25.10;17.35;;;;;;;;;;4991008;28;20223;-62
2022/10/18 04:59:51;;;;;;;27.40;18.27;;;;;;;;;;4991097;28;20240;-62
2022/10/18 05:02:16;;;;;;;31.17;20.05;;;;;;;;;;4997017;28;20236;-62
2022/10/18 05:04:42;;;;;;;24.42;15.90;;;;;;;;;;4997424;28;20790;-62
2022/10/18 05:07:07;;;;;;;27.40;18.23;;;;;;;;;;4996875;28;20307;-62
2022/10/18 05:09:32;;;;;;;27.63;18.33;;;;;;;;;;4997331;28;20780;-62
2022/10/18 05:11:57;;;;;;;25.58;18.05;;;;;;;;;;4997904;28;20217;-62
2022/10/18 05:14:23;;;;;;;27.83;18.27;;;;;;;;;;4996141;28;20617;-62
2022/10/18 05:16:48;;;;;;;26.98;18.30;;;;;;;;;;4993279;28;20232;-62
2022/10/18 05:19:13;;;;;;;28.02;18.58;;;;;;;;;;4990393;28;20945;-62
2022/10/18 05:21:39;;;;;;;28.50;17.25;;;;;;;;;;4989884;28;20437;-62
2022/10/18 05:24:04;;;;;;;23.85;16.10;;;;;;;;;;4994818;28;20307;-62
2022/10/18 05:26:29;;;;;;;28.63;18.23;;;;;;;;;;4997783;28;20212;-62
2022/10/18 05:28:54;;;;;;;25.73;18.73;;;;;;;;;;4997628;28;20231;-62
2022/10/18 05:31:20;;;;;;;20.20;16.33;;;;;;;;;;4996642;28;20224;-62
2022/10/18 05:33:45;;;;;;;29.58;18.80;;;;;;;;;;4996244;28;20204;-62
2022/10/18 05:36:11;;;;;;;21.77;16.23;;;;;;;;;;4996561;28;20228;-62
2022/10/18 05:38:38;;;;;;;26.10;18.35;;;;;;;;;;4995028;28;20212;-62
2022/10/18 05:41:03;;;;;;;24.60;17.67;;;;;;;;;;4989336;28;20217;-62
2022/10/18 05:43:28;;;;;;;25.50;16.75;;;;;;;;;;4990826;28;20231;-62
2022/10/18 05:45:53;;;;;;;22.90;17.17;;;;;;;;;;4992824;28;20246;-62
2022/10/18 05:48:19;;;;;;;23.13;16.48;;;;;;;;;;5000444;28;20212;-62
2022/10/18 05:50:44;;;;;;;26.10;17.60;;;;;;;;;;5003375;28;20216;-62
2022/10/18 05:53:09;;;;;;;26.30;17.05;;;;;;;;;;5000244;28;20243;-62
2022/10/18 05:55:35;;;;;;;25.83;16.67;;;;;;;;;;5002279;28;20251;-62
2022/10/18 05:58:01;;;;;;;32.33;18.25;;;;;;;;;;5003039;28;20232;-62
2022/10/18 06:00:26;;;;;;;25.30;16.38;;;;;;;;;;5002819;28;20216;-62
2022/10/18 06:02:52;;;;;;;20.05;15.68;;;;;;;;;;4992531;28;20310;-64
2022/10/18 06:05:17;;;;;;;24.67;18.27;;;;;;;;;;4988540;28;20422;-63
2022/10/18 06:07:42;;;;;;;20.15;14.85;;;;;;;;;;4989782;28;20775;-62
2022/10/18 06:10:08;;;;;;;26.48;19.48;;;;;;;;;;4992719;28;20427;-64
2022/10/18 06:12:33;;;;;;;23.30;15.77;;;;;;;;;;4994191;28;20719;-64
2022/10/18 06:14:58;;;;;;;23.27;17.17;;;;;;;;;;4995563;28;20632;-64
2022/10/18 06:17:23;;;;;;;31.05;17.80;;;;;;;;;;4978809;28;20223;-64
2022/10/18 06:19:49;;;;;;;20.17;15.68;;;;;;;;;;4992881;28;20508;-64
2022/10/18 06:22:14;;;;;;;24.85;15.85;;;;;;;;;;4994299;28;20235;-64
2022/10/18 06:24:39;;;;;;;23.45;15.60;;;;;;;;;;4991633;28;20286;-63
2022/10/18 06:27:08;;;;;;;27.70;19.63;;;;;;;;;;4986548;28;20434;-62
2022/10/18 06:29:34;;;;;;;27.42;14.98;;;;;;;;;;4988314;28;20255;-62
2022/10/18 06:32:00;;;;;;;20.55;14.27;;;;;;;;;;4988489;28;20216;-64
2022/10/18 06:34:25;;;;;;;22.05;14.65;;;;;;;;;;4993453;28;20212;-65
2022/10/18 06:36:50;;;;;;;17.95;13.00;;;;;;;;;;4996000;28;20255;-65
2022/10/18 06:39:15;;;;;;;19.55;13.30;;;;;;;;;;4995877;28;20212;-65
2022/10/18 06:41:41;;;;;;;17.23;12.65;;;;;;;;;;4996606;28;20875;-65
2022/10/18 06:44:12;;;;;;;17.65;11.75;;;;;;;;;;4995640;28;20216;-65
2022/10/18 06:46:38;;;;;;;17.85;11.55;;;;;;;;;;4995923;28;20315;-65
2022/10/18 06:49:04;;;;;;;16.63;10.93;;;;;;;;;;4989767;28;20216;-65
2022/10/18 06:51:29;;;;;;;17.02;11.07;;;;;;;;;;4989367;28;20216;-65
2022/10/18 06:53:54;;;;;;;12.95;10.50;;;;;;;;;;4991046;28;20256;-65
2022/10/18 06:56:19;;;;;;;17.38;11.50;;;;;;;;;;4995866;28;20635;-65
2022/10/18 06:58:45;;;;;;;17.40;11.70;;;;;;;;;;5003585;28;20243;-64
2022/10/18 07:01:11;;;;;;;15.65;11.25;;;;;;;;;;5006568;28;20620;-65
2022/10/18 07:03:36;;;;;;;15.43;10.55;;;;;;;;;;5006532;28;20363;-65
2022/10/18 07:06:02;;;;;;;18.85;12.15;;;;;;;;;;5005786;28;20296;-65
2022/10/18 07:08:27;;;;;;;22.88;11.57;;;;;;;;;;4988778;28;20306;-65
2022/10/18 07:10:53;;;;;;;28.25;13.18;;;;;;;;;;5006702;28;20243;-65
2022/10/18 07:13:18;;;;;;;23.00;12.07;;;;;;;;;;5006947;28;20218;-65
2022/10/18 07:15:44;;;;;;;18.63;10.98;;;;;;;;;;5010535;28;20275;-65
2022/10/18 07:18:09;;;;;;;17.98;11.32;;;;;;;;;;5008143;28;20228;-65
2022/10/18 07:20:34;;;;;;;24.27;12.10;;;;;;;;;;5009496;28;20216;-65
2022/10/18 07:23:00;;;;;;;17.48;10.15;;;;;;;;;;5009668;28;20765;-64
2022/10/18 07:25:25;;;;;;;17.23;10.43;;;;;;;;;;5009615;28;20208;-65
2022/10/18 07:27:50;;;;;;;17.73;9.27;;;;;;;;;;5009278;28;20228;-65
2022/10/18 07:30:15;;;;;;;14.85;8.48;;;;;;;;;;5009304;28;20212;-65
2022/10/18 07:32:41;;;;;;;22.83;7.78;;;;;;;;;;5009658;28;20274;-65
2022/10/18 07:35:06;;;;;;;17.05;7.38;;;;;;;;;;5008919;28;20298;-65
2022/10/18 07:37:31;;;;;;;15.57;6.30;;;;;;;;;;5010060;28;20236;-65
2022/10/18 07:39:57;;;;;;;13.57;4.93;;;;;;;;;;5009441;28;20219;-65
2022/10/18 07:42:22;;;;;;;14.68;5.05;;;;;;;;;;5008095;28;20274;-65
2022/10/18 07:44:47;;;;;;;16.25;4.82;;;;;;;;;;5009849;28;20815;-65
2022/10/18 07:47:13;;;;;;;12.88;4.20;;;;;;;;;;5008720;28;20277;-64
2022/10/18 07:49:39;;;;;;;13.27;4.18;;;;;;;;;;5008885;28;20342;-65
2022/10/18 07:52:04;;;;;;;12.48;4.40;;;;;;;;;;5009178;28;20231;-65
2022/10/18 07:54:29;;;;;;;14.98;4.45;;;;;;;;;;5008594;28;20216;-65
2022/10/18 07:56:55;;;;;;;12.32;4.18;;;;;;;;;;5009400;28;20204;-65
2022/10/18 07:59:20;;;;;;;16.77;4.90;;;;;;;;;;5008810;28;20224;-65
2022/10/18 08:01:45;;;;;;;10.25;3.45;;;;;;;;;;5008644;28;20299;-65
2022/10/18 08:04:10;;;;;;;12.18;3.50;;;;;;;;;;5010859;28;20227;-65
2022/10/18 08:06:36;;;;;;;11.07;2.97;;;;;;;;;;5015120;28;20212;-65
2022/10/18 08:09:01;;;;;;;11.23;3.10;;;;;;;;;;5013595;28;20217;-65
2022/10/18 08:11:26;;;;;;;9.23;2.97;;;;;;;;;;5015059;28;20216;-65
2022/10/18 08:13:52;;;;;;;10.57;2.90;;;;;;;;;;5014556;28;20298;-65
2022/10/18 08:16:18;;;;;;;10.07;2.83;;;;;;;;;;5012804;28;20212;-65
2022/10/18 08:18:44;;;;;;;7.00;2.28;;;;;;;;;;5013300;28;20263;-64
2022/10/18 08:21:10;;;;;;;8.32;2.33;;;;;;;;;;5019089;28;20220;-64
2022/10/18 08:23:35;;;;;;;7.57;2.08;;;;;;;;;;5028011;28;20211;-64
2022/10/18 08:26:04;;;;;;;10.95;2.00;;;;;;;;;;5027618;28;20595;-64
2022/10/18 08:28:29;;;;;;;10.40;2.25;;;;;;;;;;5020933;28;20215;-64
2022/10/18 08:30:54;;;;;;;13.45;2.42;;;;;;;;;;5007474;28;20517;-64
2022/10/18 08:33:20;;;;;;;7.90;2.20;;;;;;;;;;5008130;28;20311;-65
2022/10/18 08:35:55;;;;;;;8.63;2.17;;;;;;;;;;5008614;28;20278;-64
2022/10/18 08:38:20;;;;;;;9.45;2.05;;;;;;;;;;5007436;28;20624;-64
2022/10/18 08:40:46;;;;;;;9.00;2.05;;;;;;;;;;5007410;28;20204;-64
2022/10/18 08:43:25;;;;;;;7.75;2.10;;;;;;;;;;5008169;28;20834;-64
2022/10/18 08:45:50;;;;;;;10.55;1.95;;;;;;;;;;5007101;28;20232;-64
2022/10/18 08:48:21;;;;;;;10.32;1.90;;;;;;;;;;5007631;28;20719;-64
2022/10/18 08:50:46;;;;;;;8.80;2.00;;;;;;;;;;5006262;28;20279;-64
2022/10/18 08:53:13;;;;;;;8.57;2.00;;;;;;;;;;5006928;28;20706;-65
2022/10/18 08:55:39;;;;;;;11.40;1.90;;;;;;;;;;5008266;28;20267;-64
2022/10/18 08:58:15;;;;;;;8.20;1.92;;;;;;;;;;5022479;28;20228;-65
2022/10/18 09:00:41;;;;;;;7.90;1.75;;;;;;;;;;5006829;28;20208;-64
2022/10/18 09:03:24;;;;;;;14.40;1.88;;;;;;;;;;5006985;28;20233;-64
2022/10/18 09:05:52;;;;;;;5.30;1.35;;;;;;;;;;5007199;28;20274;-64
2022/10/18 09:08:21;;;;;;;7.80;1.50;;;;;;;;;;5006326;28;20216;-64
2022/10/18 09:10:47;;;;;;;8.32;1.95;;;;;;;;;;5007029;28;20723;-64
2022/10/18 09:13:27;;;;;;;8.88;1.45;;;;;;;;;;5006954;28;20485;-65
2022/10/18 09:15:52;;;;;;;4.57;1.00;;;;;;;;;;5005758;28;20315;-65
2022/10/18 09:18:23;;;;;;;9.40;1.52;;;;;;;;;;5007604;28;20307;-65
2022/10/18 09:20:54;;;;;;;8.07;1.33;;;;;;;;;;5005642;28;20255;-65
2022/10/18 09:23:20;;;;;;;8.55;1.50;;;;;;;;;;5014029;28;20222;-65
2022/10/18 09:25:50;;;;;;;8.52;1.17;;;;;;;;;;5026600;28;20570;-65
2022/10/18 09:28:29;;;;;;;7.32;1.38;;;;;;;;;;5025900;28;20215;-65
2022/10/18 09:30:55;;;;;;;7.25;1.63;;;;;;;;;;5014586;28;20299;-65
2022/10/18 09:33:20;;;;;;;7.13;1.50;;;;;;;;;;5006212;28;20231;-65
2022/10/18 09:35:59;;;;;;;6.10;1.00;;;;;;;;;;5017755;28;20228;-64
2022/10/18 09:38:29;;;;;;;7.35;1.40;;;;;;;;;;5026921;28;20212;-64
2022/10/18 09:40:55;;;;;;;5.65;1.40;;;;;;;;;;5025489;28;20718;-64
2022/10/18 09:43:22;;;;;;;6.60;1.13;;;;;;;;;;5025632;28;20489;-65
2022/10/18 09:45:47;;;;;;;6.47;1.40;;;;;;;;;;5012732;28;20212;-65
2022/10/18 09:48:14;;;;;;;8.02;1.40;;;;;;;;;;5004842;28;20234;-64
2022/10/18 09:50:40;;;;;;;7.03;1.55;;;;;;;;;;5012181;28;20204;-64
2022/10/18 09:53:05;;;;;;;5.55;1.40;;;;;;;;;;5016945;28;20715;-64
2022/10/18 09:55:32;;;;;;;8.35;1.30;;;;;;;;;;5006653;28;20232;-64
2022/10/18 09:57:59;;;;;;;9.65;1.60;;;;;;;;;;5006192;28;20205;-64
2022/10/18 10:00:25;;;;;;;6.03;1.20;;;;;;;;;;5004817;28;20212;-64
2022/10/18 10:02:50;;;;;;;7.55;1.10;;;;;;;;;;5004911;28;20250;-64
2022/10/18 10:05:15;;;;;;;7.65;1.45;;;;;;;;;;5006570;28;20220;-64
2022/10/18 10:07:42;;;;;;;10.90;1.52;;;;;;;;;;5007135;28;20598;-64
2022/10/18 10:10:11;;;;;;;6.25;1.33;;;;;;;;;;5004866;28;20220;-64
2022/10/18 10:12:36;;;;;;;6.90;1.40;;;;;;;;;;5005998;28;20212;-64
2022/10/18 10:15:21;;;;;;;6.97;1.40;;;;;;;;;;5004463;28;20564;-64
2022/10/18 10:17:52;;;;;;;7.28;1.45;;;;;;;;;;5006933;28;20220;-64
2022/10/18 10:20:19;;;;;;;10.30;1.50;;;;;;;;;;5005201;28;20228;-64
2022/10/18 10:22:45;;;;;;;6.82;1.40;;;;;;;;;;5005983;28;20200;-64
2022/10/18 10:25:19;;;;;;;6.78;1.20;;;;;;;;;;5006467;28;20691;-64
2022/10/18 10:27:44;;;;;;;8.68;1.88;;;;;;;;;;5006045;28;20617;-64
2022/10/18 10:30:23;;;;;;;6.47;1.63;;;;;;;;;;5005842;28;20291;-64
2022/10/18 10:32:49;;;;;;;8.20;1.15;;;;;;;;;;5019763;28;20223;-64
2022/10/18 10:35:21;;;;;;;5.60;1.08;;;;;;;;;;5026439;28;20241;-64
2022/10/18 10:37:49;;;;;;;6.28;1.10;;;;;;;;;;5025747;28;20216;-65
2022/10/18 10:40:20;;;;;;;6.45;1.40;;;;;;;;;;5025952;28;20216;-65
2022/10/18 10:42:51;;;;;;;6.25;1.38;;;;;;;;;;5026638;28;20726;-65
2022/10/18 10:45:16;;;;;;;5.35;0.90;;;;;;;;;;5023883;28;20269;-64
2022/10/18 10:47:41;;;;;;;6.65;1.13;;;;;;;;;;5010722;28;20208;-65
2022/10/18 10:50:09;;;;;;;5.55;1.17;;;;;;;;;;5010499;28;20541;-65
2022/10/18 10:52:34;;;;;;;7.63;1.20;;;;;;;;;;5008398;28;20209;-65
2022/10/18 10:55:01;;;;;;;8.32;1.50;;;;;;;;;;5009041;28;20553;-65
2022/10/18 10:57:26;;;;;;;5.57;1.10;;;;;;;;;;5008269;28;20204;-64
2022/10/18 10:59:52;;;;;;;6.68;1.38;;;;;;;;;;5009013;28;20613;-65
2022/10/18 11:02:17;;;;;;;7.40;1.40;;;;;;;;;;5009907;28;20239;-64
2022/10/18 11:04:43;;;;;;;7.38;1.30;;;;;;;;;;5009750;28;20208;-65
2022/10/18 11:07:12;;;;;;;6.97;1.17;;;;;;;;;;5009943;28;20306;-65
2022/10/18 11:09:48;;;;;;;5.65;1.27;;;;;;;;;;5010290;28;20205;-64
2022/10/18 11:12:31;;;;;;;9.57;1.40;;;;;;;;;;5008348;28;20212;-64
2022/10/18 11:15:01;;;;;;;4.15;1.13;;;;;;;;;;5008994;28;20250;-64
2022/10/18 11:17:34;;;;;;;6.93;1.17;;;;;;;;;;5008148;28;20649;-64
2022/10/18 11:20:02;;;;;;;5.85;1.30;;;;;;;;;;5008494;28;20219;-64
2022/10/18 11:22:28;;;;;;;6.35;1.00;;;;;;;;;;5008407;28;20284;-65
2022/10/18 11:24:54;;;;;;;7.13;1.40;;;;;;;;;;5008910;28;20308;-64
2022/10/18 11:27:23;;;;;;;8.60;1.60;;;;;;;;;;5008995;28;20303;-64
2022/10/18 11:30:05;;;;;;;7.60;1.30;;;;;;;;;;5008770;28;20377;-64
2022/10/18 11:32:33;;;;;;;7.50;1.20;;;;;;;;;;5008479;28;20208;-64
2022/10/18 11:35:02;;;;;;;5.80;1.00;;;;;;;;;;5008200;28;20569;-62
2022/10/18 11:37:37;;;;;;;7.57;1.17;;;;;;;;;;5009328;28;20310;-61
2022/10/18 11:40:21;;;;;;;6.80;1.40;;;;;;;;;;5008426;28;20423;-64
2022/10/18 11:42:51;;;;;;;9.15;1.73;;;;;;;;;;5009727;28;20758;-63
2022/10/18 11:45:26;;;;;;;6.53;1.20;;;;;;;;;;5008037;28;20219;-63
2022/10/18 11:47:53;;;;;;;5.68;1.00;;;;;;;;;;5008770;28;20691;-62
2022/10/18 11:50:25;;;;;;;6.63;1.25;;;;;;;;;;5008096;28;20212;-63
2022/10/18 11:52:57;;;;;;;4.22;1.40;;;;;;;;;;5008072;28;20305;-63
2022/10/18 11:55:38;;;;;;;8.40;1.33;;;;;;;;;;5007090;28;20220;-63
2022/10/18 11:58:09;;;;;;;6.90;1.17;;;;;;;;;;5009312;28;20216;-63
2022/10/18 12:00:48;;;;;;;8.23;0.98;;;;;;;;;;5007274;28;20305;-63
2022/10/18 12:03:25;;;;;;;9.55;1.58;;;;;;;;;;5006817;28;20263;-63
2022/10/18 12:05:51;;;;;;;6.50;1.17;;;;;;;;;;4993413;28;20672;-62
2022/10/18 12:08:16;;;;;;;12.52;1.95;;;;;;;;;;4992170;28;20227;-62
2022/10/18 12:10:42;;;;;;;5.78;1.10;;;;;;;;;;5011473;28;20212;-63
2022/10/18 12:13:10;;;;;;;4.78;1.17;;;;;;;;;;5017439;28;20314;-63
2022/10/18 12:15:36;;;;;;;6.90;1.20;;;;;;;;;;5020286;28;20220;-63
2022/10/18 12:18:04;;;;;;;5.43;1.60;;;;;;;;;;5015727;28;20263;-63
2022/10/18 12:20:30;;;;;;;7.40;1.30;;;;;;;;;;5007771;28;20295;-63
2022/10/18 12:23:01;;;;;;;4.60;1.15;;;;;;;;;;5008571;28;20223;-63
2022/10/18 12:25:27;;;;;;;5.22;1.10;;;;;;;;;;5008830;28;20224;-63
2022/10/18 12:27:57;;;;;;;6.85;1.48;;;;;;;;;;5008007;28;20213;-63
2022/10/18 12:30:26;;;;;;;8.07;1.55;;;;;;;;;;5006749;28;20220;-63
2022/10/18 12:33:00;;;;;;;7.43;1.40;;;;;;;;;;5006982;28;20217;-63
2022/10/18 12:35:25;;;;;;;6.55;1.25;;;;;;;;;;4993137;28;20269;-63
2022/10/18 12:37:51;;;;;;;5.32;1.10;;;;;;;;;;4987174;28;20299;-63
2022/10/18 12:40:20;;;;;;;7.13;1.58;;;;;;;;;;5008319;28;20208;-63
2022/10/18 12:42:46;;;;;;;4.65;1.25;;;;;;;;;;5013830;28;20267;-63
2022/10/18 12:45:12;;;;;;;5.72;1.35;;;;;;;;;;5010413;28;20204;-63
2022/10/18 12:47:37;;;;;;;7.47;1.50;;;;;;;;;;5011579;28;20212;-63
2022/10/18 12:50:04;;;;;;;7.70;1.45;;;;;;;;;;5011054;28;20789;-64
2022/10/18 12:52:32;;;;;;;5.55;1.17;;;;;;;;;;5010974;28;20204;-63
2022/10/18 12:55:12;;;;;;;6.75;1.33;;;;;;;;;;5010955;28;20600;-62
2022/10/18 12:57:50;;;;;;;6.53;1.20;;;;;;;;;;5006854;28;20216;-63
2022/10/18 13:00:28;;;;;;;9.02;1.58;;;;;;;;;;5006480;28;20774;-63
2022/10/18 13:03:29;;;;;;;7.20;1.40;;;;;;;;;;5005361;28;20315;-63
2022/10/18 13:05:56;;;;;;;5.63;1.23;;;;;;;;;;5005649;28;20208;-62
2022/10/18 13:08:27;;;;;;;4.97;1.30;;;;;;;;;;5006274;28;20212;-62
2022/10/18 13:11:00;;;;;;;5.07;1.48;;;;;;;;;;5004745;28;20348;-62
2022/10/18 13:13:29;;;;;;;5.00;1.23;;;;;;;;;;5007288;28;20220;-62
2022/10/18 13:15:56;;;;;;;5.32;1.10;;;;;;;;;;5006873;28;20363;-62
2022/10/18 13:18:24;;;;;;;6.00;0.77;;;;;;;;;;5003519;28;20217;-62
2022/10/18 13:21:00;;;;;;;6.85;1.33;;;;;;;;;;5007732;28;20560;-63
2022/10/18 13:23:30;;;;;;;5.55;1.10;;;;;;;;;;5005566;28;20697;-63
2022/10/18 13:26:14;;;;;;;6.15;0.80;;;;;;;;;;5004863;28;20223;-63
2022/10/18 13:28:39;;;;;;;6.93;1.17;;;;;;;;;;5004118;28;20212;-62
2022/10/18 13:31:12;;;;;;;4.68;0.85;;;;;;;;;;5008930;28;20226;-63
2022/10/18 13:33:38;;;;;;;4.20;0.88;;;;;;;;;;5005565;28;20608;-62
2022/10/18 13:36:03;;;;;;;8.38;1.05;;;;;;;;;;5011293;28;20735;-63
2022/10/18 13:38:33;;;;;;;4.65;0.90;;;;;;;;;;5007957;28;20220;-62
2022/10/18 13:40:59;;;;;;;5.28;1.05;;;;;;;;;;5012737;28;20277;-62
2022/10/18 13:43:43;;;;;;;5.40;0.80;;;;;;;;;;5005783;28;20204;-63
2022/10/18 13:46:09;;;;;;;4.68;1.00;;;;;;;;;;5003133;28;20197;-62
2022/10/18 13:48:34;;;;;;;7.15;0.80;;;;;;;;;;5005968;28;20201;-62
2022/10/18 13:51:05;;;;;;;3.80;0.82;;;;;;;;;;5009563;28;20207;-63
2022/10/18 13:53:33;;;;;;;5.70;0.98;;;;;;;;;;5005437;28;20291;-62
2022/10/18 13:56:04;;;;;;;4.65;0.98;;;;;;;;;;5010517;28;20347;-63
2022/10/18 13:58:33;;;;;;;5.25;0.90;;;;;;;;;;5004210;28;20874;-62
2022/10/18 14:01:05;;;;;;;4.53;0.90;;;;;;;;;;5004684;28;20208;-62
2022/10/18 14:03:32;;;;;;;4.10;0.80;;;;;;;;;;5007569;28;20234;-62
2022/10/18 14:05:57;;;;;;;4.57;0.65;;;;;;;;;;5026121;28;20291;-63
2022/10/18 14:08:36;;;;;;;3.60;0.80;;;;;;;;;;5024614;28;20887;-62
2022/10/18 14:11:20;;;;;;;3.22;0.80;;;;;;;;;;5005702;28;20219;-63
2022/10/18 14:13:53;;;;;;;7.22;0.90;;;;;;;;;;5005687;28;20216;-62
2022/10/18 14:16:19;;;;;;;4.00;0.70;;;;;;;;;;5004382;28;20267;-63
2022/10/18 14:18:44;;;;;;;4.68;0.70;;;;;;;;;;5006370;28;20212;-62
2022/10/18 14:21:11;;;;;;;8.02;0.93;;;;;;;;;;5005873;28;20217;-63
2022/10/18 14:23:39;;;;;;;5.60;0.90;;;;;;;;;;5005279;28;20203;-62
2022/10/18 14:26:04;;;;;;;4.82;1.05;;;;;;;;;;5004976;28;20223;-63
2022/10/18 14:28:30;;;;;;;4.60;0.80;;;;;;;;;;5004815;28;20797;-62
2022/10/18 14:30:58;;;;;;;6.35;1.30;;;;;;;;;;5004952;28;20232;-62